M/y Kaiser — ZGAY5 — position and weather

sailwx.info

Track history (hours):
 
Tides and Currents Weather Stations Pressure Air Temp Water Temp Dewpoint Dewpoint Depression Visibility Wind Speed Wind Dir Waves Ship Positions

M/y Kaiser

Last reported at 2016-Jun-17 15:14 UTC. Time now 2016-Oct-01 15:29 UTC.
Position N 37°49' E 016°03'.
Warning: this ship's position is months out of date.

Length 60 m; draft 3.5 m.

Type: Pleasure craft. MMSI: 319022600.

Date/timePositionNaut miles runAvg speedWind from/ knotsBaromVisibWave heightAir tempDewpointWater temp
2016-Jun-17 15:14N 37°49' E 016°03'913.4
2016-Jun-17 14:34N 37°51' E 015°52'1313.2
2016-Jun-17 13:34N 37°58' E 015°38'1313.2
2016-Jun-17 12:33N 38°11' E 015°35'2 1.6
2016-Jun-17 11:33N 38°11' E 015°33'0 0.0
2016-Jun-17 10:33N 38°11' E 015°33'0 0.0
2016-Jun-17 09:33N 38°11' E 015°33'0 0.0
2016-Jun-17 08:33N 38°11' E 015°33'0 0.0
2016-Jun-17 07:33N 38°11' E 015°33'0 0.0
2016-Jun-17 06:34N 38°11' E 015°33'0 0.0
2016-Jun-17 05:33N 38°11' E 015°33'0 0.0
2016-Jun-17 04:33N 38°11' E 015°33'0 0.0
2016-Jun-17 03:33N 38°11' E 015°33'0 0.0
2016-Jun-17 02:33N 38°11' E 015°33'0 0.0
2016-Jun-17 01:33N 38°11' E 015°33'0 0.0
2016-Jun-17 00:33N 38°11' E 015°33'0 0.0
2016-Jun-16 23:33N 38°11' E 015°33'0 0.0
2016-Jun-16 22:30N 38°11' E 015°33'0 0.0
2016-Jun-16 21:33N 38°11' E 015°33'0 0.0
2016-Jun-16 20:33N 38°11' E 015°33'0 0.0
2016-Jun-16 19:33N 38°11' E 015°33'0 0.0
2016-Jun-16 18:33N 38°11' E 015°33'0 0.0
2016-Jun-16 17:33N 38°11' E 015°33'0 0.0
2016-Jun-16 16:33N 38°11' E 015°33'0 0.0
2016-Jun-16 15:33N 38°11' E 015°33'2 2.3
2016-Jun-16 14:33N 38°13' E 015°35'6 5.7
2016-Jun-16 13:33N 38°18' E 015°38'9 9.3
2016-Jun-16 12:33N 38°20' E 015°27'1414.3
2016-Jun-16 11:33N 38°20' E 015°09'1414.2
2016-Jun-16 10:33N 38°20' E 014°50'1513.7
2016-Jun-16 09:26N 38°20' E 014°31'4113.5
2016-Jun-16 06:23N 38°20' E 013°38'1113.4
2016-Jun-16 05:33N 38°21' E 013°24'1413.6
2016-Jun-16 04:33N 38°21' E 013°07'8813.9
2016-Jun-15 22:12N 38°22' E 011°15'1013.9
2016-Jun-15 21:29N 38°22' E 011°02'1314.2
2016-Jun-15 20:34N 38°23' E 010°45'1414.4
2016-Jun-15 19:33N 38°23' E 010°26'1414.2
2016-Jun-15 18:33N 38°23' E 010°08'1414.2
2016-Jun-15 17:33N 38°23' E 009°50'1714.0
2016-Jun-15 16:20N 38°23' E 009°28'1113.9
2016-Jun-15 15:31N 38°23' E 009°14'1413.9
2016-Jun-15 14:32N 38°22' E 008°57'25813.5
2016-Jun-14 19:26N 37°34' E 003°35'4114.0
2016-Jun-14 16:32N 37°26' E 002°44'39214.0
2016-Jun-13 12:32N 36°00' W 005°13'11 9.5
2016-Jun-13 11:24N 36°09' W 005°22'0 0.0
2016-Jun-13 04:33N 36°09' W 005°22'3 2.7
2016-Jun-13 03:33N 36°06' W 005°23'6 6.2
2016-Jun-13 02:34N 36°01' W 005°20'9 9.2
2016-Jun-13 01:33N 35°57' W 005°31'  
2016-Jun-09 16:29N 49°04' W 005°24'4614.3
2016-Jun-09 13:15N 49°27' W 004°23'1014.6
2016-Jun-09 12:33N 49°33' W 004°09'1414.3
2016-Jun-09 11:33N 49°40' W 003°51'1313.0
2016-Jun-09 10:32N 49°46' W 003°33'1212.2
2016-Jun-09 09:33N 49°52' W 003°17'1212.2
2016-Jun-09 08:33N 49°58' W 003°00'1312.9
2016-Jun-09 07:33N 50°02' W 002°41'1614.5
2016-Jun-09 06:27N 50°06' W 002°17'1516.3
2016-Jun-09 05:33N 50°10' W 001°55'6315.9
2016-Jun-09 01:33N 50°28' W 000°19'1312.7
2016-Jun-09 00:33N 50°31' W 000°00'1211.7
2016-Jun-08 23:33N 50°34' E 000°17'1211.5
2016-Jun-08 22:29N 50°39' E 000°36'1414.3
2016-Jun-08 21:32N 50°47' E 000°53'1514.7
2016-Jun-08 20:30N 50°56' E 001°12'1415.4
2016-Jun-08 19:33N 51°05' E 001°30'1413.9
2016-Jun-08 18:34N 51°15' E 001°46'1312.6
2016-Jun-08 17:33N 51°25' E 001°58'1211.7
2016-Jun-08 16:34N 51°35' E 002°09'1211.5
2016-Jun-08 15:34N 51°44' E 002°20'1212.1
2016-Jun-08 14:34N 51°53' E 002°33'1413.3
2016-Jun-08 13:32N 52°03' E 002°48'3214.8
2016-Jun-08 11:24N 52°28' E 003°20'1515.3
2016-Jun-08 10:27N 52°40' E 003°34'5213.1
2016-Jun-08 06:27N 53°19' E 004°31'2512.1
2016-Jun-08 04:22N 53°34' E 005°05'1214.6
2016-Jun-08 03:33N 53°39' E 005°23'1514.6
2016-Jun-08 02:33N 53°43' E 005°47'1414.1
2016-Jun-08 01:34N 53°47' E 006°09'1313.4
2016-Jun-08 00:33N 53°51' E 006°31'1312.7
2016-Jun-07 23:32N 53°54' E 006°52'1212.2
2016-Jun-07 22:33N 53°56' E 007°13'1311.8
2016-Jun-07 21:29N 53°59' E 007°33'1111.5
2016-Jun-07 20:33N 53°53' E 007°48'1312.8
2016-Jun-07 19:33N 53°48' E 008°08'1313.1
2016-Jun-07 18:33N 53°39' E 008°24'9 8.8
2016-Jun-07 17:33N 53°32' E 008°34'8 8.4
2016-Jun-07 16:33N 53°24' E 008°30'4 4.1
2016-Jun-07 15:33N 53°28' E 008°30'  
Track history (hours):
 
Tides and Currents Weather Stations Pressure Air Temp Water Temp Dewpoint Dewpoint Depression Visibility Wind Speed Wind Dir Waves Ship Positions

M/y Kaiser

Last reported at 2016-Jun-17 15:14 UTC. Time now 2016-Oct-01 15:29 UTC.
Position N 37°49' E 016°03'.
Warning: this ship's position is months out of date.

Length 60 m; draft 3.5 m.

Type: Pleasure craft. MMSI: 319022600.

Date/timePositionNaut miles runAvg speedWind from/ knotsBaromVisibWave heightAir tempDewpointWater temp
2016-Jun-17 15:14N 37°49' E 016°03'913.4
2016-Jun-17 14:34N 37°51' E 015°52'1313.2
2016-Jun-17 13:34N 37°58' E 015°38'1313.2
2016-Jun-17 12:33N 38°11' E 015°35'2 1.6
2016-Jun-17 11:33N 38°11' E 015°33'0 0.0
2016-Jun-17 10:33N 38°11' E 015°33'0 0.0
2016-Jun-17 09:33N 38°11' E 015°33'0 0.0
2016-Jun-17 08:33N 38°11' E 015°33'0 0.0
2016-Jun-17 07:33N 38°11' E 015°33'0 0.0
2016-Jun-17 06:34N 38°11' E 015°33'0 0.0
2016-Jun-17 05:33N 38°11' E 015°33'0 0.0
2016-Jun-17 04:33N 38°11' E 015°33'0 0.0
2016-Jun-17 03:33N 38°11' E 015°33'0 0.0
2016-Jun-17 02:33N 38°11' E 015°33'0 0.0
2016-Jun-17 01:33N 38°11' E 015°33'0 0.0
2016-Jun-17 00:33N 38°11' E 015°33'0 0.0
2016-Jun-16 23:33N 38°11' E 015°33'0 0.0
2016-Jun-16 22:30N 38°11' E 015°33'0 0.0
2016-Jun-16 21:33N 38°11' E 015°33'0 0.0
2016-Jun-16 20:33N 38°11' E 015°33'0 0.0
2016-Jun-16 19:33N 38°11' E 015°33'0 0.0
2016-Jun-16 18:33N 38°11' E 015°33'0 0.0
2016-Jun-16 17:33N 38°11' E 015°33'0 0.0
2016-Jun-16 16:33N 38°11' E 015°33'0 0.0
2016-Jun-16 15:33N 38°11' E 015°33'2 2.3
2016-Jun-16 14:33N 38°13' E 015°35'6 5.7
2016-Jun-16 13:33N 38°18' E 015°38'9 9.3
2016-Jun-16 12:33N 38°20' E 015°27'1414.3
2016-Jun-16 11:33N 38°20' E 015°09'1414.2
2016-Jun-16 10:33N 38°20' E 014°50'1513.7
2016-Jun-16 09:26N 38°20' E 014°31'4113.5
2016-Jun-16 06:23N 38°20' E 013°38'1113.4
2016-Jun-16 05:33N 38°21' E 013°24'1413.6
2016-Jun-16 04:33N 38°21' E 013°07'8813.9
2016-Jun-15 22:12N 38°22' E 011°15'1013.9
2016-Jun-15 21:29N 38°22' E 011°02'1314.2
2016-Jun-15 20:34N 38°23' E 010°45'1414.4
2016-Jun-15 19:33N 38°23' E 010°26'1414.2
2016-Jun-15 18:33N 38°23' E 010°08'1414.2
2016-Jun-15 17:33N 38°23' E 009°50'1714.0
2016-Jun-15 16:20N 38°23' E 009°28'1113.9
2016-Jun-15 15:31N 38°23' E 009°14'1413.9
2016-Jun-15 14:32N 38°22' E 008°57'25813.5
2016-Jun-14 19:26N 37°34' E 003°35'4114.0
2016-Jun-14 16:32N 37°26' E 002°44'39214.0
2016-Jun-13 12:32N 36°00' W 005°13'11 9.5
2016-Jun-13 11:24N 36°09' W 005°22'0 0.0
2016-Jun-13 04:33N 36°09' W 005°22'3 2.7
2016-Jun-13 03:33N 36°06' W 005°23'6 6.2
2016-Jun-13 02:34N 36°01' W 005°20'9 9.2
2016-Jun-13 01:33N 35°57' W 005°31'  
2016-Jun-09 16:29N 49°04' W 005°24'4614.3
2016-Jun-09 13:15N 49°27' W 004°23'1014.6
2016-Jun-09 12:33N 49°33' W 004°09'1414.3
2016-Jun-09 11:33N 49°40' W 003°51'1313.0
2016-Jun-09 10:32N 49°46' W 003°33'1212.2
2016-Jun-09 09:33N 49°52' W 003°17'1212.2
2016-Jun-09 08:33N 49°58' W 003°00'1312.9
2016-Jun-09 07:33N 50°02' W 002°41'1614.5
2016-Jun-09 06:27N 50°06' W 002°17'1516.3
2016-Jun-09 05:33N 50°10' W 001°55'6315.9
2016-Jun-09 01:33N 50°28' W 000°19'1312.7
2016-Jun-09 00:33N 50°31' W 000°00'1211.7
2016-Jun-08 23:33N 50°34' E 000°17'1211.5
2016-Jun-08 22:29N 50°39' E 000°36'1414.3
2016-Jun-08 21:32N 50°47' E 000°53'1514.7
2016-Jun-08 20:30N 50°56' E 001°12'1415.4
2016-Jun-08 19:33N 51°05' E 001°30'1413.9
2016-Jun-08 18:34N 51°15' E 001°46'1312.6
2016-Jun-08 17:33N 51°25' E 001°58'1211.7
2016-Jun-08 16:34N 51°35' E 002°09'1211.5
2016-Jun-08 15:34N 51°44' E 002°20'1212.1
2016-Jun-08 14:34N 51°53' E 002°33'1413.3
2016-Jun-08 13:32N 52°03' E 002°48'3214.8
2016-Jun-08 11:24N 52°28' E 003°20'1515.3
2016-Jun-08 10:27N 52°40' E 003°34'5213.1
2016-Jun-08 06:27N 53°19' E 004°31'2512.1
2016-Jun-08 04:22N 53°34' E 005°05'1214.6
2016-Jun-08 03:33N 53°39' E 005°23'1514.6
2016-Jun-08 02:33N 53°43' E 005°47'1414.1
2016-Jun-08 01:34N 53°47' E 006°09'1313.4
2016-Jun-08 00:33N 53°51' E 006°31'1312.7
2016-Jun-07 23:32N 53°54' E 006°52'1212.2
2016-Jun-07 22:33N 53°56' E 007°13'1311.8
2016-Jun-07 21:29N 53°59' E 007°33'1111.5
2016-Jun-07 20:33N 53°53' E 007°48'1312.8
2016-Jun-07 19:33N 53°48' E 008°08'1313.1
2016-Jun-07 18:33N 53°39' E 008°24'9 8.8
2016-Jun-07 17:33N 53°32' E 008°34'8 8.4
2016-Jun-07 16:33N 53°24' E 008°30'4 4.1
2016-Jun-07 15:33N 53°28' E 008°30'  

Dump ship's entire track history